Time;durP1;ratioP1;P1;durP2;ratioP2;P2;SDS_P1;SDS_P2;PMS_P1;PMS_P2;Temp;Humidity;BMP_temperature;BMP_pressure;BME280_temperature;BME280_humidity;BME280_pressure;Samples;Min_cycle;Max_cycle;Signal;HPM_P1;HPM_P2
2021/11/23 00:01:07;;;;;;;5.77;2.90;;;6.10;99.90;;;;;;5021275;28;20192;-51
2021/11/23 00:03:34;;;;;;;6.37;3.30;;;6.20;99.90;;;;;;5013234;28;20956;-52
2021/11/23 00:06:00;;;;;;;5.97;3.20;;;6.20;99.90;;;;;;5024571;28;20665;-46
2021/11/23 00:08:28;;;;;;;6.80;3.20;;;6.30;99.90;;;;;;5014375;28;20227;-48
2021/11/23 00:10:55;;;;;;;5.30;3.13;;;6.30;99.90;;;;;;5011488;28;20200;-47
2021/11/23 00:13:22;;;;;;;4.83;2.97;;;6.40;99.90;;;;;;5022426;28;20595;-49
2021/11/23 00:15:48;;;;;;;9.47;4.20;;;6.40;99.90;;;;;;5023700;28;20454;-50
2021/11/23 00:18:15;;;;;;;9.60;3.47;;;6.50;99.90;;;;;;5023576;28;20216;-51
2021/11/23 00:20:44;;;;;;;10.20;3.37;;;6.50;99.90;;;;;;5022171;28;20189;-49
2021/11/23 00:23:11;;;;;;;6.93;3.50;;;6.50;99.90;;;;;;5025018;28;20188;-50
2021/11/23 00:25:42;;;;;;;5.53;3.67;;;6.50;99.90;;;;;;5021316;28;21037;-47
2021/11/23 00:28:08;;;;;;;8.53;4.10;;;6.60;99.90;;;;;;5012025;28;20219;-48
2021/11/23 00:30:35;;;;;;;8.13;4.07;;;6.60;99.90;;;;;;5020670;28;20197;-46
2021/11/23 00:33:02;;;;;;;5.30;4.73;;;6.60;99.90;;;;;;5024884;28;20206;-51
2021/11/23 00:35:29;;;;;;;11.77;4.40;;;6.70;99.90;;;;;;5021492;28;20271;-50
2021/11/23 00:37:56;;;;;;;7.83;4.70;;;6.70;99.90;;;;;;5016809;28;20216;-51
2021/11/23 00:40:24;;;;;;;7.63;3.90;;;6.70;99.90;;;;;;5022309;28;20216;-51
2021/11/23 00:42:52;;;;;;;5.30;3.60;;;6.70;99.90;;;;;;5010119;28;20209;-47
2021/11/23 00:45:21;;;;;;;6.13;4.03;;;6.80;99.90;;;;;;5022988;28;20199;-52
2021/11/23 00:47:49;;;;;;;3.60;3.30;;;6.80;99.90;;;;;;5022961;28;20903;-48
2021/11/23 00:50:16;;;;;;;5.93;3.90;;;6.80;99.90;;;;;;5023648;28;20200;-52
2021/11/23 00:52:44;;;;;;;7.47;4.30;;;6.80;99.90;;;;;;5021617;28;20866;-49
2021/11/23 00:55:12;;;;;;;6.80;4.00;;;6.80;99.90;;;;;;5024443;28;20191;-50
2021/11/23 00:57:39;;;;;;;3.73;3.40;;;6.80;99.90;;;;;;5007906;28;20227;-48
2021/11/23 01:00:11;;;;;;;6.27;4.07;;;6.80;99.90;;;;;;5024156;28;20553;-53
2021/11/23 01:02:38;;;;;;;4.60;3.43;;;6.90;99.90;;;;;;5020107;28;20192;-49
2021/11/23 01:05:06;;;;;;;4.00;3.70;;;6.90;99.90;;;;;;5024127;28;20192;-49
2021/11/23 01:07:33;;;;;;;3.83;3.40;;;6.90;99.90;;;;;;5012312;28;20308;-49
2021/11/23 01:10:00;;;;;;;4.17;3.73;;;6.90;99.90;;;;;;5023954;28;20194;-50
2021/11/23 01:12:27;;;;;;;6.30;4.47;;;6.90;99.90;;;;;;5010971;28;20192;-49
2021/11/23 01:14:53;;;;;;;6.03;5.00;;;6.90;99.90;;;;;;5021157;28;20206;-48
2021/11/23 01:17:22;;;;;;;5.60;4.67;;;7.00;99.90;;;;;;5022225;28;20226;-52
2021/11/23 01:19:49;;;;;;;7.30;5.10;;;6.90;99.90;;;;;;5022457;28;20191;-48
2021/11/23 01:22:16;;;;;;;7.37;5.40;;;7.00;99.90;;;;;;5022898;28;20203;-51
2021/11/23 01:24:43;;;;;;;7.80;5.43;;;7.00;99.90;;;;;;5020874;28;20192;-47
2021/11/23 01:27:10;;;;;;;6.93;5.70;;;7.00;99.90;;;;;;5023818;28;20235;-49
2021/11/23 01:29:37;;;;;;;9.03;6.43;;;7.00;99.90;;;;;;5006675;28;20211;-46
2021/11/23 01:32:05;;;;;;;7.00;6.07;;;7.00;99.90;;;;;;5023485;28;20225;-48
2021/11/23 01:34:33;;;;;;;12.40;5.40;;;7.00;99.90;;;;;;5019817;28;20188;-53
2021/11/23 01:37:00;;;;;;;6.90;5.60;;;7.00;99.90;;;;;;5019693;28;20292;-51
2021/11/23 01:39:26;;;;;;;13.77;6.67;;;7.10;99.90;;;;;;5017524;28;20788;-53
2021/11/23 01:41:54;;;;;;;12.77;6.67;;;7.10;99.90;;;;;;5022744;28;20690;-46
2021/11/23 01:44:21;;;;;;;10.13;7.00;;;7.10;99.90;;;;;;5015311;28;20226;-47
2021/11/23 01:46:47;;;;;;;11.63;6.83;;;7.10;99.90;;;;;;5016071;28;20222;-52
2021/11/23 01:49:15;;;;;;;10.87;6.57;;;7.10;99.90;;;;;;5023014;28;20927;-48
2021/11/23 01:51:44;;;;;;;7.00;5.70;;;7.10;99.90;;;;;;5020360;28;20207;-47
2021/11/23 01:54:11;;;;;;;9.37;6.80;;;7.10;99.90;;;;;;5023535;28;20192;-48
2021/11/23 01:56:38;;;;;;;7.83;6.67;;;7.10;99.90;;;;;;5019717;28;20184;-49
2021/11/23 01:59:05;;;;;;;6.73;5.93;;;7.10;99.90;;;;;;5023635;28;20207;-47
2021/11/23 02:01:32;;;;;;;12.63;6.60;;;7.20;99.90;;;;;;5006096;28;20200;-50
2021/11/23 02:03:59;;;;;;;11.20;7.27;;;7.20;99.90;;;;;;5016801;28;20200;-49
2021/11/23 02:06:25;;;;;;;15.93;7.33;;;7.20;99.90;;;;;;5020241;28;20262;-52
2021/11/23 02:08:54;;;;;;;13.27;8.00;;;7.20;99.90;;;;;;5013977;28;20208;-48
2021/11/23 02:11:21;;;;;;;11.07;8.20;;;7.20;99.90;;;;;;5021160;28;20204;-53
2021/11/23 02:13:48;;;;;;;17.23;8.53;;;7.20;99.90;;;;;;5020461;28;20184;-52
2021/11/23 02:16:15;;;;;;;13.47;8.27;;;7.20;99.90;;;;;;5009771;28;20215;-51
2021/11/23 02:18:41;;;;;;;12.60;7.67;;;7.20;99.90;;;;;;5019884;28;20226;-46
2021/11/23 02:21:10;;;;;;;13.60;7.97;;;7.20;99.90;;;;;;5023269;28;20592;-51
2021/11/23 02:23:37;;;;;;;13.00;8.13;;;7.30;99.90;;;;;;5019032;28;20213;-46
2021/11/23 02:26:04;;;;;;;16.47;7.40;;;7.30;99.90;;;;;;5023267;28;20223;-47
2021/11/23 02:28:31;;;;;;;11.27;6.87;;;7.30;99.90;;;;;;5019052;28;20775;-52
2021/11/23 02:30:59;;;;;;;11.97;7.60;;;7.30;99.90;;;;;;5023283;28;20203;-48
2021/11/23 02:33:29;;;;;;;11.60;8.13;;;7.30;99.90;;;;;;5007129;28;20267;-51
2021/11/23 02:35:57;;;;;;;15.17;8.73;;;7.30;99.90;;;;;;5022988;28;20200;-46
2021/11/23 02:38:26;;;;;;;9.07;7.50;;;7.30;99.90;;;;;;5013028;28;20588;-52
2021/11/23 02:40:53;;;;;;;13.60;8.00;;;7.30;99.90;;;;;;5022717;28;20605;-47
2021/11/23 02:43:21;;;;;;;11.43;7.63;;;7.30;99.90;;;;;;5024769;28;20192;-51
2021/11/23 02:45:48;;;;;;;11.13;7.43;;;7.30;99.90;;;;;;5025020;28;20184;-52
2021/11/23 02:48:15;;;;;;;12.13;8.53;;;7.30;99.90;;;;;;5013348;28;20310;-50
2021/11/23 02:50:47;;;;;;;13.70;8.20;;;7.40;99.90;;;;;;5023516;28;20204;-49
2021/11/23 02:53:14;;;;;;;11.93;7.77;;;7.40;99.90;;;;;;5026215;28;20215;-49
2021/11/23 02:55:42;;;;;;;11.50;8.30;;;7.40;99.90;;;;;;5023412;28;20185;-48
2021/11/23 02:58:10;;;;;;;11.87;8.37;;;7.40;99.90;;;;;;5026645;28;20215;-51
2021/11/23 03:00:38;;;;;;;9.27;8.13;;;7.40;99.90;;;;;;5022700;28;20720;-51
2021/11/23 03:03:04;;;;;;;15.37;8.93;;;7.40;99.90;;;;;;5013425;28;20204;-50
2021/11/23 03:05:31;;;;;;;16.57;8.73;;;7.40;99.90;;;;;;5022592;28;20203;-51
2021/11/23 03:07:58;;;;;;;12.23;8.13;;;7.40;99.90;;;;;;5018553;28;20235;-47
2021/11/23 03:10:27;;;;;;;11.43;8.13;;;7.40;99.90;;;;;;5023782;28;20210;-52
2021/11/23 03:12:56;;;;;;;16.27;9.83;;;7.40;99.90;;;;;;5025761;28;20211;-47
2021/11/23 03:15:24;;;;;;;13.03;8.80;;;7.40;99.90;;;;;;5024241;28;20200;-50
2021/11/23 03:17:52;;;;;;;14.03;8.87;;;7.40;99.90;;;;;;5012363;28;20227;-48
2021/11/23 03:20:21;;;;;;;13.10;8.67;;;7.40;99.90;;;;;;5024645;28;20583;-49
2021/11/23 03:22:49;;;;;;;14.30;8.67;;;7.40;99.90;;;;;;5024057;28;20195;-48
2021/11/23 03:25:16;;;;;;;10.73;7.87;;;7.40;99.90;;;;;;5025365;28;20200;-56
2021/11/23 03:27:43;;;;;;;12.23;8.17;;;7.40;99.90;;;;;;5023277;28;20311;-48
2021/11/23 03:30:13;;;;;;;10.77;7.90;;;7.50;99.90;;;;;;5026268;28;20195;-49
2021/11/23 03:32:41;;;;;;;14.57;8.43;;;7.50;99.90;;;;;;5010099;28;20219;-49
2021/11/23 03:35:09;;;;;;;11.57;7.80;;;7.50;99.90;;;;;;5025936;28;20559;-49
2021/11/23 03:37:36;;;;;;;10.67;7.80;;;7.50;99.90;;;;;;5014090;28;20270;-48
2021/11/23 03:40:05;;;;;;;13.87;7.70;;;7.40;99.90;;;;;;5025744;28;20686;-48
2021/11/23 03:42:31;;;;;;;10.70;7.27;;;7.40;99.90;;;;;;5021668;28;20771;-53
2021/11/23 03:44:58;;;;;;;11.73;8.00;;;7.50;99.90;;;;;;5025732;28;20220;-48
2021/11/23 03:47:29;;;;;;;12.27;7.60;;;7.40;99.90;;;;;;5022770;28;20224;-52
2021/11/23 03:49:56;;;;;;;10.40;7.37;;;7.40;99.90;;;;;;5012744;28;20200;-49
2021/11/23 03:52:23;;;;;;;11.43;7.00;;;7.30;99.90;;;;;;5023170;28;20673;-49
2021/11/23 03:54:49;;;;;;;9.40;6.67;;;7.30;99.90;;;;;;5024053;28;20953;-48
2021/11/23 03:57:16;;;;;;;12.03;6.87;;;7.30;99.90;;;;;;5024503;28;20204;-50
2021/11/23 03:59:47;;;;;;;13.47;7.77;;;7.30;99.90;;;;;;5023030;28;21011;-53
2021/11/23 04:02:15;;;;;;;12.40;6.63;;;7.20;99.90;;;;;;5025030;28;20279;-53
2021/11/23 04:04:43;;;;;;;11.77;6.83;;;7.20;99.90;;;;;;5009750;28;20800;-46
2021/11/23 04:07:09;;;;;;;16.57;6.43;;;7.20;99.90;;;;;;5015062;28;20232;-51
2021/11/23 04:09:36;;;;;;;10.23;6.30;;;7.10;99.90;;;;;;5019547;28;20901;-52
2021/11/23 04:12:03;;;;;;;11.33;5.63;;;7.10;99.90;;;;;;5024213;28;20678;-51
2021/11/23 04:14:30;;;;;;;8.33;6.27;;;7.10;99.90;;;;;;5022220;28;20936;-50
2021/11/23 04:16:56;;;;;;;9.17;6.30;;;7.00;99.90;;;;;;5024470;28;20283;-48
2021/11/23 04:19:23;;;;;;;9.17;5.70;;;7.00;99.90;;;;;;5008175;28;20204;-51
2021/11/23 04:21:51;;;;;;;9.20;6.07;;;7.00;99.90;;;;;;5024514;28;20192;-52
2021/11/23 04:24:18;;;;;;;10.40;5.40;;;7.00;99.90;;;;;;5021486;28;20686;-51
2021/11/23 04:26:44;;;;;;;11.30;5.80;;;7.00;99.90;;;;;;5024652;28;20227;-50
2021/11/23 04:29:11;;;;;;;7.17;5.33;;;7.00;99.90;;;;;;5022815;28;20203;-52
2021/11/23 04:31:38;;;;;;;8.23;5.77;;;6.90;99.90;;;;;;5023149;28;20234;-47
2021/11/23 04:34:04;;;;;;;10.17;5.80;;;6.90;99.90;;;;;;5021133;28;20200;-52
2021/11/23 04:36:31;;;;;;;10.33;5.40;;;6.90;99.90;;;;;;5012503;28;20235;-51
2021/11/23 04:38:59;;;;;;;12.13;5.57;;;6.90;99.90;;;;;;5017539;28;20200;-49
2021/11/23 04:41:25;;;;;;;14.40;5.57;;;7.00;99.90;;;;;;5020522;28;20200;-53
2021/11/23 04:43:53;;;;;;;15.87;6.20;;;7.00;99.90;;;;;;5024592;28;20192;-47
2021/11/23 04:46:19;;;;;;;11.83;5.67;;;7.00;99.90;;;;;;5020852;28;20672;-51
2021/11/23 04:48:46;;;;;;;11.13;6.17;;;7.00;99.90;;;;;;5023228;28;20278;-47
2021/11/23 04:51:13;;;;;;;11.83;6.80;;;7.10;99.90;;;;;;5008315;28;20222;-52
2021/11/23 04:53:40;;;;;;;13.83;6.30;;;7.10;99.90;;;;;;5017867;28;20938;-50
2021/11/23 04:56:10;;;;;;;17.93;7.43;;;7.10;99.90;;;;;;5016074;28;20213;-50
2021/11/23 04:58:36;;;;;;;13.13;7.10;;;7.10;99.90;;;;;;5022024;28;20222;-47
2021/11/23 05:01:03;;;;;;;15.53;7.00;;;7.10;99.90;;;;;;5011360;28;20208;-51
2021/11/23 05:03:30;;;;;;;15.70;8.03;;;7.10;99.90;;;;;;5018526;28;20709;-46
2021/11/23 05:05:57;;;;;;;15.90;8.00;;;7.10;99.90;;;;;;5021176;28;20203;-53
2021/11/23 05:08:23;;;;;;;14.77;8.17;;;7.10;99.90;;;;;;5002895;28;20219;-52
2021/11/23 05:10:50;;;;;;;25.53;8.57;;;7.10;99.90;;;;;;5010703;28;20220;-48
2021/11/23 05:13:18;;;;;;;29.23;10.23;;;7.20;99.90;;;;;;5016575;28;20208;-50
2021/11/23 05:15:44;;;;;;;24.93;9.20;;;7.20;99.90;;;;;;5018680;28;20192;-48
2021/11/23 05:18:11;;;;;;;32.73;10.07;;;7.20;99.90;;;;;;5023106;28;20223;-49
2021/11/23 05:20:38;;;;;;;26.60;9.50;;;7.20;99.90;;;;;;5018490;28;20192;-51
2021/11/23 05:23:04;;;;;;;18.33;9.07;;;7.20;99.90;;;;;;5007896;28;20215;-47
2021/11/23 05:25:31;;;;;;;20.30;9.97;;;7.20;99.90;;;;;;5023053;28;20209;-51
2021/11/23 05:27:57;;;;;;;21.67;9.97;;;7.20;99.90;;;;;;5016817;28;20231;-49
2021/11/23 05:30:26;;;;;;;15.90;8.67;;;7.20;99.90;;;;;;5004103;28;20185;-48
2021/11/23 05:32:53;;;;;;;20.37;9.43;;;7.20;99.90;;;;;;5000321;28;20192;-46
2021/11/23 05:35:20;;;;;;;20.70;9.70;;;7.30;99.90;;;;;;5010927;28;20872;-51
2021/11/23 05:37:47;;;;;;;17.33;8.70;;;7.30;99.90;;;;;;4995201;28;20250;-51
2021/11/23 05:40:13;;;;;;;15.37;9.17;;;7.30;99.90;;;;;;5023236;28;20210;-51
2021/11/23 05:42:40;;;;;;;16.60;7.70;;;7.30;99.90;;;;;;5015189;28;20223;-52
2021/11/23 05:45:09;;;;;;;14.47;7.33;;;7.30;99.90;;;;;;5022439;28;20188;-50
2021/11/23 05:47:37;;;;;;;14.03;7.23;;;7.30;99.90;;;;;;5019660;28;20715;-50
2021/11/23 05:50:05;;;;;;;14.77;7.67;;;7.30;99.90;;;;;;5021839;28;20195;-46
2021/11/23 05:52:32;;;;;;;16.07;8.03;;;7.30;99.90;;;;;;5015672;28;20208;-50
2021/11/23 05:54:59;;;;;;;12.90;7.30;;;7.30;99.90;;;;;;5007552;28;21025;-48
2021/11/23 05:57:25;;;;;;;11.30;6.67;;;7.30;99.90;;;;;;5017744;28;20595;-52
2021/11/23 05:59:52;;;;;;;11.47;6.97;;;7.30;99.90;;;;;;5017357;28;20206;-46
2021/11/23 06:02:19;;;;;;;11.57;6.70;;;7.30;99.90;;;;;;5023124;28;20665;-46
2021/11/23 06:04:46;;;;;;;13.30;7.23;;;7.30;99.90;;;;;;5014609;28;20191;-46
2021/11/23 06:07:13;;;;;;;10.60;6.77;;;7.30;99.90;;;;;;5023229;28;20231;-46
2021/11/23 06:09:40;;;;;;;10.87;6.47;;;7.20;99.90;;;;;;4996976;28;20208;-49
2021/11/23 06:12:08;;;;;;;11.17;6.27;;;7.20;99.90;;;;;;5021291;28;20219;-46
2021/11/23 06:14:34;;;;;;;11.00;6.83;;;7.20;99.90;;;;;;5016392;28;20222;-49
2021/11/23 06:17:01;;;;;;;15.43;6.60;;;7.30;99.90;;;;;;5018184;28;20223;-49
2021/11/23 06:19:28;;;;;;;12.80;6.00;;;7.20;99.90;;;;;;5026631;28;20196;-53
2021/11/23 06:21:56;;;;;;;10.77;6.30;;;7.20;99.90;;;;;;5017981;28;20200;-47
2021/11/23 06:24:23;;;;;;;15.20;6.23;;;7.20;99.90;;;;;;5027490;28;20652;-53
2021/11/23 06:26:49;;;;;;;13.50;6.60;;;7.20;99.90;;;;;;5009813;28;20231;-46
2021/11/23 06:29:16;;;;;;;13.70;6.00;;;7.20;99.90;;;;;;5022568;28;20730;-49
2021/11/23 06:31:43;;;;;;;15.47;6.43;;;7.20;99.90;;;;;;5020776;28;20279;-51
2021/11/23 06:34:09;;;;;;;12.67;5.73;;;7.20;99.90;;;;;;5028263;28;20200;-46
2021/11/23 06:36:37;;;;;;;19.33;6.63;;;7.20;99.90;;;;;;5038683;28;20253;-48
2021/11/23 06:39:06;;;;;;;11.23;6.10;;;7.20;99.90;;;;;;5019112;28;20226;-49
2021/11/23 06:41:33;;;;;;;10.20;6.07;;;7.20;99.90;;;;;;5009822;28;20214;-49
2021/11/23 06:44:02;;;;;;;15.53;5.77;;;7.20;99.90;;;;;;5019317;28;20204;-50
2021/11/23 06:46:30;;;;;;;13.93;4.97;;;7.20;99.90;;;;;;5021844;28;20200;-50
2021/11/23 06:48:57;;;;;;;11.47;4.10;;;7.20;99.90;;;;;;5026018;28;20223;-47
2021/11/23 06:51:24;;;;;;;10.67;4.73;;;7.20;99.90;;;;;;5012371;28;20199;-49
2021/11/23 06:53:50;;;;;;;7.80;4.00;;;7.20;99.90;;;;;;5029069;28;20192;-49
2021/11/23 06:56:19;;;;;;;11.57;4.10;;;7.10;99.90;;;;;;5025705;28;20195;-52
2021/11/23 06:58:45;;;;;;;7.57;4.43;;;7.10;99.90;;;;;;5009530;28;20230;-46
2021/11/23 07:01:12;;;;;;;13.07;3.43;;;7.10;99.90;;;;;;5018204;28;20842;-46
2021/11/23 07:03:38;;;;;;;8.17;3.80;;;7.10;99.90;;;;;;5022917;28;20197;-49
2021/11/23 07:06:05;;;;;;;10.00;3.63;;;7.00;99.90;;;;;;5020208;28;20204;-52
2021/11/23 07:08:32;;;;;;;5.73;3.53;;;7.00;99.90;;;;;;5021223;28;20219;-50
2021/11/23 07:10:58;;;;;;;9.20;3.77;;;7.00;99.90;;;;;;5028361;28;20278;-46
2021/11/23 07:13:26;;;;;;;9.07;4.00;;;7.00;99.90;;;;;;5010069;28;20220;-50
2021/11/23 07:15:53;;;;;;;11.70;4.07;;;7.00;99.90;;;;;;5017018;28;20211;-48
2021/11/23 07:18:20;;;;;;;7.30;4.00;;;7.00;99.90;;;;;;5018725;28;20231;-50
2021/11/23 07:20:47;;;;;;;9.83;3.70;;;7.00;99.90;;;;;;5020918;28;20199;-49
2021/11/23 07:23:13;;;;;;;10.40;3.50;;;7.00;99.90;;;;;;5025586;28;20211;-53
2021/11/23 07:25:40;;;;;;;8.63;3.30;;;7.00;99.90;;;;;;5016839;28;20211;-48
2021/11/23 07:28:07;;;;;;;15.13;3.33;;;7.00;99.90;;;;;;5003843;28;20231;-50
2021/11/23 07:30:35;;;;;;;7.57;3.30;;;7.00;99.90;;;;;;5015815;28;20200;-50
2021/11/23 07:33:02;;;;;;;9.90;3.77;;;7.00;99.90;;;;;;5020894;28;20203;-50
2021/11/23 07:35:29;;;;;;;10.17;3.20;;;7.00;99.90;;;;;;5017046;28;20210;-53
2021/11/23 07:37:55;;;;;;;4.87;2.93;;;7.00;99.90;;;;;;5020504;28;20219;-47
2021/11/23 07:40:22;;;;;;;12.57;3.23;;;7.00;99.90;;;;;;5021908;28;20727;-52
2021/11/23 07:42:49;;;;;;;9.03;2.40;;;7.00;99.90;;;;;;5002727;28;20208;-49
2021/11/23 07:45:15;;;;;;;8.80;2.90;;;7.00;99.90;;;;;;5024027;28;20305;-48
2021/11/23 07:47:43;;;;;;;8.63;2.83;;;7.00;99.90;;;;;;5012690;28;20231;-52
2021/11/23 07:50:11;;;;;;;6.67;2.67;;;7.00;99.90;;;;;;5015831;28;20956;-53
2021/11/23 07:52:37;;;;;;;10.43;2.97;;;7.00;99.90;;;;;;5024183;28;20211;-49
2021/11/23 07:55:05;;;;;;;9.17;2.50;;;7.00;99.90;;;;;;5015147;28;20176;-49
2021/11/23 07:57:33;;;;;;;4.97;2.47;;;7.00;99.90;;;;;;5010266;28;20310;-50
2021/11/23 08:00:00;;;;;;;6.07;2.60;;;7.00;99.90;;;;;;5018889;28;20208;-50
2021/11/23 08:02:26;;;;;;;7.77;2.60;;;7.00;99.90;;;;;;5012586;28;20250;-48
2021/11/23 08:04:55;;;;;;;6.70;3.00;;;7.00;99.90;;;;;;5021582;28;20196;-54
2021/11/23 08:07:22;;;;;;;5.20;3.07;;;7.10;99.90;;;;;;4977712;28;996165;-54
2021/11/23 08:09:49;;;;;;;11.50;3.03;;;7.10;99.90;;;;;;5021790;28;20537;-51
2021/11/23 08:12:16;;;;;;;6.53;2.43;;;7.10;99.90;;;;;;5010886;28;20208;-50
2021/11/23 08:14:43;;;;;;;8.90;3.10;;;7.20;99.90;;;;;;5002240;28;20199;-53
2021/11/23 08:17:09;;;;;;;8.40;2.93;;;7.20;99.90;;;;;;5019965;28;20211;-46
2021/11/23 08:19:36;;;;;;;9.30;2.80;;;7.20;99.90;;;;;;5012378;28;20668;-47
2021/11/23 08:22:04;;;;;;;7.23;2.90;;;7.20;99.90;;;;;;5018579;28;20223;-54
2021/11/23 08:24:31;;;;;;;11.30;2.63;;;7.30;99.90;;;;;;5023819;28;20211;-50
2021/11/23 08:26:59;;;;;;;5.67;2.83;;;7.20;99.90;;;;;;5012584;28;20220;-50
2021/11/23 08:29:25;;;;;;;5.30;2.50;;;7.20;99.90;;;;;;5010375;28;20231;-49
2021/11/23 08:31:52;;;;;;;7.40;2.37;;;7.20;99.90;;;;;;5020384;28;20668;-51
2021/11/23 08:34:21;;;;;;;5.97;2.17;;;7.20;99.90;;;;;;5018906;28;20208;-53
2021/11/23 08:36:48;;;;;;;8.23;2.20;;;7.20;99.90;;;;;;5017751;28;20200;-50
2021/11/23 08:39:17;;;;;;;12.03;2.73;;;7.30;99.90;;;;;;5021337;28;20180;-51
2021/11/23 08:41:44;;;;;;;11.53;2.87;;;7.30;99.90;;;;;;5008205;28;20258;-49
2021/11/23 08:44:11;;;;;;;5.47;2.20;;;7.30;99.90;;;;;;5005705;28;20204;-47
2021/11/23 08:46:38;;;;;;;8.70;2.30;;;7.30;99.90;;;;;;4999011;28;20613;-49
2021/11/23 08:49:05;;;;;;;6.03;2.20;;;7.40;99.90;;;;;;5012792;28;20231;-47
2021/11/23 08:51:35;;;;;;;6.23;2.00;;;7.50;99.90;;;;;;5016892;28;20200;-52
2021/11/23 08:54:03;;;;;;;6.73;1.80;;;7.60;99.90;;;;;;5019881;28;20207;-52
2021/11/23 08:56:34;;;;;;;4.60;2.00;;;7.60;99.90;;;;;;5020195;28;20188;-49
2021/11/23 08:59:04;;;;;;;6.00;1.80;;;7.60;99.90;;;;;;5017472;28;20207;-48
2021/11/23 09:01:31;;;;;;;2.60;1.67;;;7.70;99.90;;;;;;5007816;28;20204;-51
2021/11/23 09:03:57;;;;;;;4.33;1.60;;;7.80;99.90;;;;;;5017254;28;20214;-51
2021/11/23 09:06:26;;;;;;;2.83;1.50;;;7.90;99.90;;;;;;5022824;28;20657;-49
2021/11/23 09:08:55;;;;;;;6.13;1.37;;;8.00;99.90;;;;;;5019903;28;20227;-50
2021/11/23 09:11:23;;;;;;;8.47;1.27;;;8.00;99.90;;;;;;5016582;28;20207;-48
2021/11/23 09:13:51;;;;;;;5.03;1.43;;;8.00;99.90;;;;;;5013914;28;20207;-46
2021/11/23 09:16:18;;;;;;;7.37;1.17;;;8.10;99.90;;;;;;5007037;28;20208;-48
2021/11/23 09:18:45;;;;;;;7.17;1.27;;;8.20;99.90;;;;;;5013846;28;20215;-47
2021/11/23 09:21:12;;;;;;;11.30;2.37;;;8.20;99.90;;;;;;5017949;28;20203;-49
2021/11/23 09:23:38;;;;;;;4.90;2.13;;;8.30;99.90;;;;;;5019421;28;20188;-50
2021/11/23 09:26:05;;;;;;;6.93;1.77;;;8.40;99.90;;;;;;5017301;28;20578;-49
2021/11/23 09:28:32;;;;;;;11.80;1.40;;;8.40;99.90;;;;;;5016833;28;20225;-50
2021/11/23 09:31:00;;;;;;;5.87;1.13;;;8.40;99.90;;;;;;5021296;28;20181;-46
2021/11/23 09:33:26;;;;;;;7.47;1.43;;;8.50;99.90;;;;;;5008968;28;20215;-50
2021/11/23 09:35:53;;;;;;;7.57;1.33;;;8.50;99.90;;;;;;5015665;28;20207;-48
2021/11/23 09:38:20;;;;;;;9.13;1.10;;;8.50;99.90;;;;;;5016046;28;20220;-47
2021/11/23 09:40:46;;;;;;;5.73;1.50;;;8.50;99.90;;;;;;5011033;28;20215;-48
2021/11/23 09:43:13;;;;;;;4.50;1.50;;;8.60;99.90;;;;;;5021795;28;20200;-51
2021/11/23 09:45:41;;;;;;;4.93;1.00;;;8.60;99.90;;;;;;5008462;28;20259;-48
2021/11/23 09:48:10;;;;;;;7.63;1.40;;;8.60;99.90;;;;;;5008928;28;20478;-48
2021/11/23 09:50:39;;;;;;;5.37;1.20;;;8.60;99.90;;;;;;5011535;28;20188;-47
2021/11/23 09:53:07;;;;;;;6.73;1.50;;;8.60;99.90;;;;;;5022783;28;20660;-46
2021/11/23 09:55:33;;;;;;;6.03;1.70;;;8.60;99.90;;;;;;5018524;28;20191;-47
2021/11/23 09:58:00;;;;;;;10.33;1.30;;;8.60;99.90;;;;;;5020592;28;20216;-50
2021/11/23 10:00:30;;;;;;;5.57;1.30;;;8.60;99.90;;;;;;5012143;28;20204;-48
2021/11/23 10:03:10;;;;;;;8.17;1.30;;;8.70;99.90;;;;;;5005960;28;20302;-46
2021/11/23 10:05:39;;;;;;;5.90;1.10;;;8.70;99.90;;;;;;5011267;28;20889;-47
2021/11/23 10:08:09;;;;;;;3.07;1.00;;;8.80;99.90;;;;;;5019863;28;20242;-47
2021/11/23 10:10:45;;;;;;;11.57;1.97;;;8.80;99.90;;;;;;5018407;28;20224;-47
2021/11/23 10:13:13;;;;;;;5.93;1.10;;;8.90;99.90;;;;;;5022019;28;20617;-46
2021/11/23 10:15:45;;;;;;;5.00;1.30;;;8.90;99.90;;;;;;5009619;28;20281;-50
2021/11/23 10:18:16;;;;;;;3.50;1.13;;;9.00;99.90;;;;;;5010064;28;20255;-45
2021/11/23 10:20:44;;;;;;;6.60;1.30;;;9.10;99.90;;;;;;5014916;28;20951;-48
2021/11/23 10:23:15;;;;;;;6.37;1.40;;;9.20;99.90;;;;;;5010527;28;20257;-51
2021/11/23 10:25:43;;;;;;;5.47;1.53;;;9.20;99.90;;;;;;5012959;28;21533;-49
2021/11/23 10:28:10;;;;;;;5.93;1.20;;;9.30;99.90;;;;;;5017285;28;20232;-50
2021/11/23 10:30:42;;;;;;;3.60;1.00;;;9.30;99.90;;;;;;5015380;28;20196;-48
2021/11/23 10:33:09;;;;;;;5.33;1.20;;;9.40;99.90;;;;;;5018194;28;20200;-50
2021/11/23 10:35:40;;;;;;;2.60;0.70;;;9.40;99.90;;;;;;5010080;28;20196;-53
2021/11/23 10:38:08;;;;;;;7.37;0.90;;;9.40;99.90;;;;;;5011458;28;20223;-49
2021/11/23 10:40:36;;;;;;;2.57;0.90;;;9.40;99.90;;;;;;5019501;28;20203;-50
2021/11/23 10:43:05;;;;;;;7.77;1.10;;;9.40;99.90;;;;;;5017828;28;20680;-49
2021/11/23 10:45:36;;;;;;;8.90;1.17;;;9.40;99.90;;;;;;5014099;28;20208;-49
2021/11/23 10:48:05;;;;;;;6.60;1.10;;;9.40;99.90;;;;;;5019550;28;20231;-49
2021/11/23 10:50:32;;;;;;;3.17;1.00;;;9.40;99.90;;;;;;5007118;28;20224;-50
2021/11/23 10:53:06;;;;;;;7.40;1.50;;;9.40;99.90;;;;;;5016307;28;20216;-47
2021/11/23 10:55:36;;;;;;;3.97;1.30;;;9.40;99.90;;;;;;5019111;28;20275;-48
2021/11/23 10:58:04;;;;;;;4.80;1.47;;;9.40;99.90;;;;;;5022451;28;20223;-50
2021/11/23 11:00:33;;;;;;;3.07;1.30;;;9.50;99.90;;;;;;5011769;28;20959;-50
2021/11/23 11:03:01;;;;;;;5.20;1.10;;;9.50;99.90;;;;;;5021929;28;20572;-49
2021/11/23 11:05:29;;;;;;;6.17;1.47;;;9.50;99.90;;;;;;5009005;28;20873;-47
2021/11/23 11:07:58;;;;;;;6.67;1.20;;;9.60;99.90;;;;;;5019539;28;20223;-48
2021/11/23 11:10:27;;;;;;;2.97;1.20;;;9.60;99.90;;;;;;5020385;28;20238;-51
2021/11/23 11:12:55;;;;;;;3.90;0.93;;;9.60;99.90;;;;;;5025722;28;20275;-50
2021/11/23 11:15:27;;;;;;;7.87;1.23;;;9.70;99.90;;;;;;5022863;28;20196;-52
2021/11/23 11:17:54;;;;;;;6.13;1.13;;;9.70;99.90;;;;;;5020947;28;20220;-48
2021/11/23 11:20:36;;;;;;;6.70;1.10;;;9.70;99.90;;;;;;5012087;28;20196;-51
2021/11/23 11:23:09;;;;;;;6.07;1.10;;;9.60;99.90;;;;;;5025188;28;20282;-53
2021/11/23 11:26:12;;;;;;;7.03;1.03;;;9.50;99.90;;;;;;5016671;28;20230;-51
2021/11/23 11:28:58;;;;;;;6.30;1.10;;;9.50;99.90;;;;;;5023217;28;20490;-53
2021/11/23 11:31:42;;;;;;;3.43;1.10;;;9.50;99.90;;;;;;5009644;28;20200;-49
2021/11/23 11:34:27;;;;;;;9.13;1.57;;;9.50;99.90;;;;;;5020844;28;20208;-52
2021/11/23 11:37:04;;;;;;;6.93;1.50;;;9.50;99.90;;;;;;5011102;28;20224;-48
2021/11/23 11:39:53;;;;;;;4.97;1.37;;;9.50;99.90;;;;;;5016681;28;20191;-47
2021/11/23 11:42:57;;;;;;;3.80;1.40;;;9.50;99.90;;;;;;5022071;28;20250;-53
2021/11/23 11:45:27;;;;;;;4.17;0.93;;;9.50;99.90;;;;;;5021067;28;20214;-54
2021/11/23 11:47:58;;;;;;;4.60;1.10;;;9.50;99.90;;;;;;5016127;28;20687;-50
2021/11/23 11:50:27;;;;;;;2.33;1.07;;;9.50;99.90;;;;;;5011447;28;20226;-51
2021/11/23 11:53:14;;;;;;;3.53;1.10;;;9.50;99.90;;;;;;5008144;28;20270;-53
2021/11/23 11:55:47;;;;;;;5.37;1.47;;;9.50;99.90;;;;;;5018054;28;20200;-51
2021/11/23 11:58:44;;;;;;;7.70;1.13;;;9.60;99.90;;;;;;5021736;28;20293;-52
2021/11/23 12:01:26;;;;;;;4.17;1.00;;;9.60;99.90;;;;;;5015456;28;20626;-52
2021/11/23 12:04:05;;;;;;;5.70;0.87;;;9.60;99.90;;;;;;5023776;28;20196;-52
2021/11/23 12:07:07;;;;;;;6.80;0.80;;;9.60;99.90;;;;;;5014322;28;20282;-49
2021/11/23 12:09:36;;;;;;;5.90;1.20;;;9.60;99.90;;;;;;5017943;28;20298;-52
2021/11/23 12:12:27;;;;;;;4.20;0.97;;;9.60;99.90;;;;;;5012772;28;20214;-52
2021/11/23 12:15:08;;;;;;;2.50;0.87;;;9.60;99.90;;;;;;5020248;28;20657;-51
2021/11/23 12:17:50;;;;;;;7.53;0.97;;;9.50;99.90;;;;;;5007940;28;20229;-48
2021/11/23 12:20:33;;;;;;;5.00;0.90;;;9.50;99.90;;;;;;5021431;28;20198;-48
2021/11/23 12:23:14;;;;;;;4.57;0.73;;;9.50;99.90;;;;;;5002435;28;20215;-52
2021/11/23 12:25:55;;;;;;;1.57;0.70;;;9.50;99.90;;;;;;5018234;28;20196;-47
2021/11/23 12:28:22;;;;;;;4.30;1.10;;;9.50;99.90;;;;;;5015961;28;20219;-47
2021/11/23 12:30:51;;;;;;;1.83;0.80;;;9.60;99.90;;;;;;5019909;28;20306;-53
2021/11/23 12:33:17;;;;;;;5.27;0.70;;;9.60;99.90;;;;;;5016355;28;20251;-48
2021/11/23 12:35:44;;;;;;;4.33;0.73;;;9.60;99.90;;;;;;5018497;28;20200;-52
2021/11/23 12:38:23;;;;;;;4.77;0.80;;;9.70;99.90;;;;;;5000110;28;20231;-52
2021/11/23 12:40:50;;;;;;;6.53;1.00;;;9.70;99.90;;;;;;5019934;28;20192;-51
2021/11/23 12:43:17;;;;;;;3.73;1.47;;;9.70;99.90;;;;;;5017152;28;20203;-45
2021/11/23 12:45:46;;;;;;;4.00;0.70;;;9.80;99.90;;;;;;5023834;28;20215;-49
2021/11/23 12:48:17;;;;;;;5.87;0.90;;;9.80;99.90;;;;;;5020301;28;20219;-50
2021/11/23 12:50:44;;;;;;;1.17;0.60;;;9.80;99.90;;;;;;5017231;28;20290;-47
2021/11/23 12:53:15;;;;;;;2.57;0.90;;;9.90;99.90;;;;;;5016296;28;20287;-50
2021/11/23 12:55:42;;;;;;;5.20;0.67;;;9.90;99.90;;;;;;5006527;28;20573;-50
2021/11/23 12:58:09;;;;;;;8.77;1.13;;;9.90;99.90;;;;;;5014288;28;21242;-53
2021/11/23 13:00:40;;;;;;;5.63;1.20;;;9.90;99.90;;;;;;5022954;28;20184;-52